createdAt,value
2018-04-15T00:00:04.845Z,7.71
2018-04-15T00:01:04.878Z,7.61
2018-04-15T00:02:04.915Z,7.61
2018-04-15T00:03:04.949Z,7.71
2018-04-15T00:04:04.985Z,7.71
2018-04-15T00:05:05.023Z,7.61
2018-04-15T00:06:05.789Z,7.52
2018-04-15T00:07:05.094Z,7.52
2018-04-15T00:08:05.132Z,7.61
2018-04-15T00:09:05.161Z,7.61
2018-04-15T00:10:05.199Z,7.90
2018-04-15T00:11:05.233Z,8.00
2018-04-15T00:12:06.111Z,8.00
2018-04-15T00:13:05.304Z,7.81
2018-04-15T00:14:05.340Z,7.90
2018-04-15T00:15:05.375Z,8.00
2018-04-15T00:16:05.411Z,8.09
2018-04-15T00:17:05.446Z,7.90
2018-04-15T00:18:05.492Z,7.90
2018-04-15T00:19:05.516Z,7.90
2018-04-15T00:20:06.293Z,7.90
2018-04-15T00:21:05.595Z,7.90
2018-04-15T00:22:05.624Z,8.00
2018-04-15T00:23:05.658Z,8.00
2018-04-15T00:24:05.696Z,7.90
2018-04-15T00:25:05.728Z,7.81
2018-04-15T00:26:05.769Z,8.00
2018-04-15T00:27:05.817Z,8.00
2018-04-15T00:28:05.836Z,8.09
2018-04-15T00:29:05.872Z,8.00
2018-04-15T00:30:05.909Z,7.90
2018-04-15T00:31:05.943Z,7.90
2018-04-15T00:32:05.979Z,8.09
2018-04-15T00:33:06.804Z,8.00
2018-04-15T00:34:06.807Z,7.90
2018-04-15T00:35:06.085Z,8.09
2018-04-15T00:36:06.122Z,8.09
2018-04-15T00:37:06.155Z,8.00
2018-04-15T00:38:06.190Z,8.00
2018-04-15T00:39:06.225Z,8.00
2018-04-15T00:40:06.284Z,8.09
2018-04-15T00:41:06.295Z,7.81
2018-04-15T00:42:06.331Z,8.00
2018-04-15T00:43:06.365Z,7.61
2018-04-15T00:44:06.401Z,7.52
2018-04-15T00:45:07.306Z,7.42
2018-04-15T00:46:06.472Z,7.52
2018-04-15T00:47:06.510Z,7.61
2018-04-15T00:48:06.540Z,7.42
2018-04-15T00:49:06.578Z,7.13
2018-04-15T00:50:06.611Z,7.32
2018-04-15T00:51:06.649Z,7.81
2018-04-15T00:52:06.685Z,6.94
2018-04-15T00:53:06.722Z,6.94
2018-04-15T00:54:06.753Z,7.42
2018-04-15T00:55:06.789Z,7.71
2018-04-15T00:56:06.824Z,6.94
2018-04-15T00:57:07.313Z,7.23
2018-04-15T00:58:06.897Z,7.42
2018-04-15T00:59:06.935Z,7.23
2018-04-15T01:00:06.966Z,7.23
2018-04-15T01:01:07.004Z,7.42
2018-04-15T01:02:07.040Z,7.32
2018-04-15T01:03:07.817Z,7.42
2018-04-15T01:04:07.112Z,7.04
2018-04-15T01:05:07.161Z,7.52
2018-04-15T01:06:07.180Z,7.42
2018-04-15T01:07:07.214Z,7.81
2018-04-15T01:08:07.248Z,7.81
2018-04-15T01:09:07.292Z,7.13
2018-04-15T01:10:07.325Z,7.32
2018-04-15T01:11:07.356Z,7.71
2018-04-15T01:12:07.396Z,7.61
2018-04-15T01:13:07.428Z,7.32
2018-04-15T01:14:07.466Z,7.32
2018-04-15T01:15:07.500Z,7.61
2018-04-15T01:16:07.533Z,7.32
2018-04-15T01:17:08.821Z,7.61
2018-04-15T01:18:07.626Z,7.23
2018-04-15T01:19:08.824Z,7.23
2018-04-15T01:20:07.676Z,7.23
2018-04-15T01:21:07.718Z,7.42
2018-04-15T01:22:07.748Z,7.23
2018-04-15T01:23:07.780Z,7.52
2018-04-15T01:24:07.816Z,7.23
2018-04-15T01:25:07.853Z,7.23
2018-04-15T01:26:07.888Z,7.42
2018-04-15T01:27:07.921Z,7.42
2018-04-15T01:28:07.960Z,7.61
2018-04-15T01:29:07.994Z,7.32
2018-04-15T01:30:08.028Z,7.61
2018-04-15T01:31:08.065Z,7.23
2018-04-15T01:32:08.101Z,7.71
2018-04-15T01:33:08.146Z,7.61
2018-04-15T01:34:08.171Z,7.23
2018-04-15T01:35:08.204Z,7.71
2018-04-15T01:36:08.242Z,7.71
2018-04-15T01:37:08.278Z,7.71
2018-04-15T01:38:08.833Z,7.32
2018-04-15T01:39:08.350Z,7.13
2018-04-15T01:40:08.387Z,7.23
2018-04-15T01:41:08.418Z,7.04
2018-04-15T01:42:08.457Z,7.42
2018-04-15T01:43:08.491Z,7.42
2018-04-15T01:44:08.523Z,7.32
2018-04-15T01:45:08.559Z,7.23
2018-04-15T01:46:08.595Z,7.32
2018-04-15T01:47:08.626Z,7.61
2018-04-15T01:48:08.663Z,7.71
2018-04-15T01:49:08.701Z,7.71
2018-04-15T01:50:08.736Z,7.61
2018-04-15T01:51:09.336Z,7.42
2018-04-15T01:52:08.809Z,7.61
2018-04-15T01:53:09.335Z,7.71
2018-04-15T01:54:08.873Z,7.61
2018-04-15T01:55:08.908Z,7.52
2018-04-15T01:56:08.950Z,7.71
2018-04-15T01:57:08.983Z,7.90
2018-04-15T01:58:09.020Z,8.00
2018-04-15T01:59:09.054Z,7.71
2018-04-15T02:00:09.088Z,8.00
2018-04-15T02:01:09.199Z,7.90
2018-04-15T02:02:09.202Z,7.71
2018-04-15T02:03:09.199Z,7.71
2018-04-15T02:04:09.230Z,7.71
2018-04-15T02:05:09.271Z,7.71
2018-04-15T02:06:09.302Z,7.90
2018-04-15T02:07:09.336Z,7.61
2018-04-15T02:08:09.374Z,7.90
2018-04-15T02:09:09.408Z,7.81
2018-04-15T02:10:09.443Z,7.90
2018-04-15T02:11:09.478Z,8.09
2018-04-15T02:12:09.516Z,8.00
2018-04-15T02:13:09.548Z,7.90
2018-04-15T02:14:09.586Z,7.90
2018-04-15T02:15:09.623Z,7.81
2018-04-15T02:16:10.350Z,8.00
2018-04-15T02:17:09.692Z,7.90
2018-04-15T02:18:09.730Z,7.81
2018-04-15T02:19:09.761Z,7.90
2018-04-15T02:20:09.798Z,7.71
2018-04-15T02:21:09.833Z,7.71
2018-04-15T02:22:09.869Z,7.71
2018-04-15T02:23:09.903Z,7.71
2018-04-15T02:24:09.940Z,7.71
2018-04-15T02:25:09.973Z,7.81
2018-04-15T02:26:10.006Z,8.00
2018-04-15T02:27:10.047Z,7.90
2018-04-15T02:28:10.081Z,8.19
2018-04-15T02:29:10.115Z,8.29
2018-04-15T02:30:11.356Z,8.29
2018-04-15T02:31:10.189Z,8.29
2018-04-15T02:32:10.223Z,8.39
2018-04-15T02:33:10.257Z,8.19
2018-04-15T02:34:10.296Z,8.19
2018-04-15T02:35:10.328Z,8.19
2018-04-15T02:36:10.364Z,8.19
2018-04-15T02:37:10.400Z,8.39
2018-04-15T02:38:10.438Z,8.29
2018-04-15T02:39:11.359Z,8.39
2018-04-15T02:40:11.360Z,8.29
2018-04-15T02:41:10.542Z,8.29
2018-04-15T02:42:10.576Z,8.39
2018-04-15T02:43:10.609Z,8.29
2018-04-15T02:44:10.648Z,8.00
2018-04-15T02:45:10.683Z,7.61
2018-04-15T02:46:11.364Z,7.81
2018-04-15T02:47:10.753Z,7.90
2018-04-15T02:48:10.791Z,8.00
2018-04-15T02:49:10.824Z,8.00
2018-04-15T02:50:10.863Z,7.71
2018-04-15T02:51:10.893Z,7.52
2018-04-15T02:52:10.934Z,7.61
2018-04-15T02:53:12.372Z,7.32
2018-04-15T02:54:11.000Z,7.52
2018-04-15T02:55:11.036Z,7.42
2018-04-15T02:56:11.070Z,7.61
2018-04-15T02:57:11.107Z,7.61
2018-04-15T02:58:11.143Z,7.52
2018-04-15T02:59:11.177Z,7.52
2018-04-15T03:00:11.222Z,7.52
2018-04-15T03:01:11.249Z,7.61
2018-04-15T03:02:11.285Z,7.52
2018-04-15T03:03:11.317Z,7.23
2018-04-15T03:04:11.356Z,7.23
2018-04-15T03:05:11.394Z,7.81
2018-04-15T03:06:11.430Z,7.61
2018-04-15T03:07:11.463Z,7.71
2018-04-15T03:08:11.500Z,7.61
2018-04-15T03:09:11.531Z,7.13
2018-04-15T03:10:11.569Z,7.42
2018-04-15T03:11:11.622Z,7.42
2018-04-15T03:12:11.639Z,7.32
2018-04-15T03:13:11.672Z,7.23
2018-04-15T03:14:11.707Z,7.42
2018-04-15T03:15:11.744Z,7.23
2018-04-15T03:16:11.779Z,7.32
2018-04-15T03:17:11.813Z,7.42
2018-04-15T03:18:11.853Z,7.32
2018-04-15T03:19:12.382Z,7.42
2018-04-15T03:20:11.920Z,7.32
2018-04-15T03:21:11.954Z,7.32
2018-04-15T03:22:11.993Z,7.32
2018-04-15T03:23:12.028Z,7.61
2018-04-15T03:24:12.062Z,7.42
2018-04-15T03:25:12.879Z,7.42
2018-04-15T03:26:12.134Z,7.23
2018-04-15T03:27:12.170Z,7.32
2018-04-15T03:28:12.205Z,7.32
2018-04-15T03:29:12.240Z,7.23
2018-04-15T03:30:12.884Z,7.13
2018-04-15T03:31:12.308Z,6.94
2018-04-15T03:32:12.348Z,6.94
2018-04-15T03:33:12.382Z,7.04
2018-04-15T03:34:12.415Z,7.04
2018-04-15T03:35:12.452Z,7.04
2018-04-15T03:36:12.486Z,7.04
2018-04-15T03:37:12.523Z,7.13
2018-04-15T03:38:12.557Z,7.13
2018-04-15T03:39:12.593Z,6.94
2018-04-15T03:40:12.629Z,7.13
2018-04-15T03:41:12.685Z,7.13
2018-04-15T03:42:12.698Z,7.04
2018-04-15T03:43:12.736Z,6.74
2018-04-15T03:44:12.770Z,7.32
2018-04-15T03:45:12.805Z,7.04
2018-04-15T03:46:12.841Z,6.84
2018-04-15T03:47:13.390Z,7.13
2018-04-15T03:48:12.914Z,7.13
2018-04-15T03:49:12.947Z,7.04
2018-04-15T03:50:12.985Z,7.13
2018-04-15T03:51:13.019Z,7.13
2018-04-15T03:52:13.058Z,7.13
2018-04-15T03:53:13.090Z,7.04
2018-04-15T03:54:13.123Z,7.13
2018-04-15T03:55:13.158Z,7.04
2018-04-15T03:56:13.194Z,7.04
2018-04-15T03:57:13.229Z,7.04
2018-04-15T03:58:13.265Z,6.94
2018-04-15T03:59:13.895Z,6.94
2018-04-15T04:00:13.337Z,7.13
2018-04-15T04:01:13.372Z,7.04
2018-04-15T04:02:13.408Z,7.13
2018-04-15T04:03:13.443Z,7.13
2018-04-15T04:04:13.476Z,7.04
2018-04-15T04:05:13.514Z,6.94
2018-04-15T04:06:14.401Z,7.04
2018-04-15T04:07:13.583Z,7.04
2018-04-15T04:08:13.618Z,7.04
2018-04-15T04:09:13.661Z,7.42
2018-04-15T04:10:13.690Z,7.04
2018-04-15T04:11:13.724Z,7.13
2018-04-15T04:12:13.765Z,7.04
2018-04-15T04:13:13.795Z,7.23
2018-04-15T04:14:13.831Z,7.42
2018-04-15T04:15:13.866Z,7.23
2018-04-15T04:16:13.921Z,7.42
2018-04-15T04:17:13.934Z,7.23
2018-04-15T04:18:13.978Z,7.13
2018-04-15T04:19:14.005Z,7.13
2018-04-15T04:20:14.043Z,7.32
2018-04-15T04:21:14.078Z,7.04
2018-04-15T04:22:14.907Z,7.13
2018-04-15T04:23:14.150Z,7.04
2018-04-15T04:24:14.241Z,7.04
2018-04-15T04:25:14.246Z,6.94
2018-04-15T04:26:14.255Z,7.13
2018-04-15T04:27:14.292Z,7.04
2018-04-15T04:28:14.325Z,7.13
2018-04-15T04:29:14.359Z,7.13
2018-04-15T04:30:14.398Z,7.13
2018-04-15T04:31:14.432Z,6.74
2018-04-15T04:32:14.474Z,7.04
2018-04-15T04:33:14.504Z,6.94
2018-04-15T04:34:14.536Z,6.94
2018-04-15T04:35:14.576Z,6.94
2018-04-15T04:36:14.612Z,6.84
2018-04-15T04:37:15.913Z,6.56
2018-04-15T04:38:14.685Z,6.74
2018-04-15T04:39:14.716Z,6.56
2018-04-15T04:40:14.749Z,6.84
2018-04-15T04:41:15.916Z,6.74
2018-04-15T04:42:14.825Z,6.65
2018-04-15T04:43:15.414Z,6.65
2018-04-15T04:44:14.895Z,6.46
2018-04-15T04:45:14.928Z,6.36
2018-04-15T04:46:14.965Z,6.65
2018-04-15T04:47:14.998Z,6.65
2018-04-15T04:48:15.033Z,6.56
2018-04-15T04:49:15.069Z,6.46
2018-04-15T04:50:15.108Z,6.65
2018-04-15T04:51:15.141Z,6.65
2018-04-15T04:52:15.176Z,6.56
2018-04-15T04:53:15.210Z,6.74
2018-04-15T04:54:15.248Z,6.56
2018-04-15T04:55:15.278Z,6.56
2018-04-15T04:56:15.316Z,6.65
2018-04-15T04:57:15.352Z,6.65
2018-04-15T04:58:15.388Z,6.74
2018-04-15T04:59:15.423Z,6.74
2018-04-15T05:00:15.460Z,6.65
2018-04-15T05:01:15.493Z,6.84
2018-04-15T05:02:15.530Z,6.74
2018-04-15T05:03:15.563Z,6.84
2018-04-15T05:04:15.601Z,6.56
2018-04-15T05:05:15.675Z,6.26
2018-04-15T05:06:15.669Z,6.74
2018-04-15T05:07:15.709Z,6.74
2018-04-15T05:08:15.743Z,6.74
2018-04-15T05:09:15.776Z,6.46
2018-04-15T05:10:15.812Z,6.74
2018-04-15T05:11:15.860Z,6.74
2018-04-15T05:12:16.751Z,6.74
2018-04-15T05:13:15.913Z,6.65
2018-04-15T05:14:15.957Z,6.56
2018-04-15T05:15:15.991Z,6.65
2018-04-15T05:16:16.025Z,6.65
2018-04-15T05:17:16.063Z,6.46
2018-04-15T05:18:16.931Z,6.65
2018-04-15T05:19:16.139Z,6.46
2018-04-15T05:20:16.931Z,6.46
2018-04-15T05:21:16.201Z,6.65
2018-04-15T05:22:16.249Z,6.74
2018-04-15T05:23:16.283Z,6.65
2018-04-15T05:24:16.309Z,6.65
2018-04-15T05:25:16.936Z,6.84
2018-04-15T05:26:16.392Z,6.74
2018-04-15T05:27:16.413Z,6.84
2018-04-15T05:28:16.448Z,6.84
2018-04-15T05:29:16.485Z,6.74
2018-04-15T05:30:16.519Z,6.65
2018-04-15T05:31:16.554Z,6.65
2018-04-15T05:32:16.650Z,6.56
2018-04-15T05:33:16.625Z,6.56
2018-04-15T05:34:17.438Z,6.65
2018-04-15T05:35:16.695Z,6.65
2018-04-15T05:36:16.732Z,6.94
2018-04-15T05:37:16.774Z,7.13
2018-04-15T05:38:16.801Z,7.04
2018-04-15T05:39:16.836Z,7.04
2018-04-15T05:40:16.872Z,7.04
2018-04-15T05:41:16.909Z,7.13
2018-04-15T05:42:16.945Z,6.94
2018-04-15T05:43:16.980Z,7.13
2018-04-15T05:44:17.015Z,6.94
2018-04-15T05:45:17.051Z,7.13
2018-04-15T05:46:17.088Z,7.04
2018-04-15T05:47:17.118Z,6.94
2018-04-15T05:48:17.948Z,7.13
2018-04-15T05:49:17.194Z,7.04
2018-04-15T05:50:17.228Z,7.04
2018-04-15T05:51:17.264Z,6.94
2018-04-15T05:52:17.302Z,7.04
2018-04-15T05:53:17.332Z,7.04
2018-04-15T05:54:17.967Z,7.13
2018-04-15T05:55:18.449Z,7.13
2018-04-15T05:56:17.436Z,7.04
2018-04-15T05:57:17.474Z,7.04
2018-04-15T05:58:17.514Z,6.94
2018-04-15T05:59:17.544Z,6.94
2018-04-15T06:00:17.582Z,6.94
2018-04-15T06:01:17.623Z,6.94
2018-04-15T06:02:17.651Z,6.74
2018-04-15T06:03:17.686Z,6.74
2018-04-15T06:04:17.721Z,6.65
2018-04-15T06:05:17.813Z,6.74
2018-04-15T06:06:17.796Z,6.74
2018-04-15T06:07:17.828Z,6.65
2018-04-15T06:08:17.863Z,6.65
2018-04-15T06:09:17.899Z,6.36
2018-04-15T06:10:17.933Z,6.56
2018-04-15T06:11:17.974Z,6.46
2018-04-15T06:12:18.011Z,6.56
2018-04-15T06:13:18.038Z,6.46
2018-04-15T06:14:18.077Z,6.56
2018-04-15T06:15:18.124Z,6.65
2018-04-15T06:16:18.146Z,6.36
2018-04-15T06:17:18.184Z,6.46
2018-04-15T06:18:18.218Z,6.56
2018-04-15T06:19:18.252Z,6.56
2018-04-15T06:20:18.288Z,6.65
2018-04-15T06:21:18.328Z,6.56
2018-04-15T06:22:18.360Z,6.56
2018-04-15T06:23:18.396Z,6.84
2018-04-15T06:24:18.434Z,6.74
2018-04-15T06:25:18.465Z,6.74
2018-04-15T06:26:18.500Z,6.56
2018-04-15T06:27:18.540Z,6.74
2018-04-15T06:28:18.571Z,6.65
2018-04-15T06:29:18.963Z,6.74
2018-04-15T06:30:18.646Z,6.65
2018-04-15T06:31:18.678Z,6.65
2018-04-15T06:32:18.719Z,6.56
2018-04-15T06:33:18.768Z,6.84
2018-04-15T06:34:18.784Z,6.65
2018-04-15T06:35:18.819Z,6.74
2018-04-15T06:36:18.853Z,6.65
2018-04-15T06:37:18.892Z,6.56
2018-04-15T06:38:18.925Z,6.26
2018-04-15T06:39:18.970Z,6.46
2018-04-15T06:40:18.995Z,6.07
2018-04-15T06:41:19.065Z,5.98
2018-04-15T06:42:19.470Z,6.17
2018-04-15T06:43:19.103Z,6.07
2018-04-15T06:44:19.138Z,6.17
2018-04-15T06:45:20.019Z,6.07
2018-04-15T06:46:19.290Z,6.17
2018-04-15T06:47:19.286Z,6.26
2018-04-15T06:48:19.287Z,6.17
2018-04-15T06:49:19.378Z,6.17
2018-04-15T06:50:19.348Z,6.36
2018-04-15T06:51:19.385Z,6.17
2018-04-15T06:52:19.428Z,6.17
2018-04-15T06:53:19.455Z,6.17
2018-04-15T06:54:19.491Z,5.88
2018-04-15T06:55:19.527Z,6.26
2018-04-15T06:56:19.598Z,6.07
2018-04-15T06:57:19.596Z,6.07
2018-04-15T06:58:19.633Z,6.07
2018-04-15T06:59:19.667Z,5.88
2018-04-15T07:00:19.703Z,5.88
2018-04-15T07:01:19.739Z,5.88
2018-04-15T07:02:19.775Z,5.88
2018-04-15T07:03:19.807Z,5.69
2018-04-15T07:04:19.861Z,5.88
2018-04-15T07:05:19.882Z,5.88
2018-04-15T07:06:19.919Z,5.98
2018-04-15T07:07:19.952Z,5.98
2018-04-15T07:08:19.989Z,6.07
2018-04-15T07:09:20.021Z,5.78
2018-04-15T07:10:20.056Z,5.98
2018-04-15T07:11:20.094Z,5.78
2018-04-15T07:12:20.128Z,5.69
2018-04-15T07:13:20.162Z,5.79
2018-04-15T07:14:20.202Z,5.88
2018-04-15T07:15:20.234Z,5.98
2018-04-15T07:16:20.277Z,5.88
2018-04-15T07:17:20.301Z,6.07
2018-04-15T07:18:20.342Z,5.59
2018-04-15T07:19:20.375Z,5.69
2018-04-15T07:20:20.411Z,5.78
2018-04-15T07:21:20.448Z,5.78
2018-04-15T07:22:20.482Z,5.69
2018-04-15T07:23:20.517Z,5.78
2018-04-15T07:24:20.554Z,5.98
2018-04-15T07:25:20.588Z,5.98
2018-04-15T07:26:20.626Z,5.78
2018-04-15T07:27:20.659Z,5.98
2018-04-15T07:28:20.693Z,5.98
2018-04-15T07:29:20.730Z,5.88
2018-04-15T07:30:21.496Z,5.78
2018-04-15T07:31:20.800Z,5.78
2018-04-15T07:32:20.840Z,5.69
2018-04-15T07:33:20.872Z,5.88
2018-04-15T07:34:20.908Z,5.78
2018-04-15T07:35:21.494Z,5.79
2018-04-15T07:36:21.014Z,5.78
2018-04-15T07:37:21.014Z,5.98
2018-04-15T07:38:21.048Z,5.78
2018-04-15T07:39:21.497Z,5.98
2018-04-15T07:40:21.117Z,5.78
2018-04-15T07:41:21.154Z,5.98
2018-04-15T07:42:21.191Z,5.78
2018-04-15T07:43:21.240Z,5.78
2018-04-15T07:44:21.259Z,5.78
2018-04-15T07:46:51.960Z,5.88
2018-04-15T07:47:51.950Z,5.78
2018-04-15T07:49:43.847Z,5.78
2018-04-15T07:50:43.879Z,5.78
2018-04-15T07:52:37.323Z,5.69
2018-04-15T07:53:37.329Z,5.59
2018-04-15T07:54:37.358Z,5.59
2018-04-15T07:55:37.393Z,5.69
2018-04-15T07:56:37.425Z,5.88
2018-04-15T07:57:37.463Z,5.78
2018-04-15T07:58:37.497Z,5.78
2018-04-15T07:59:37.533Z,5.98
2018-04-15T08:00:37.568Z,5.79
2018-04-15T08:01:37.604Z,5.78
2018-04-15T08:02:37.642Z,5.78
2018-04-15T08:03:37.676Z,5.78
2018-04-15T08:04:37.718Z,5.98
2018-04-15T08:05:38.527Z,5.98
2018-04-15T08:06:37.785Z,5.98
2018-04-15T08:07:37.861Z,5.78
2018-04-15T08:08:37.851Z,5.69
2018-04-15T08:09:37.889Z,5.78
2018-04-15T08:10:37.927Z,5.88
2018-04-15T08:11:37.958Z,5.98
2018-04-15T08:12:38.013Z,5.98
2018-04-15T08:13:38.032Z,5.78
2018-04-15T08:14:38.065Z,5.69
2018-04-15T08:15:38.121Z,6.07
2018-04-15T08:16:38.137Z,6.27
2018-04-15T08:17:38.169Z,5.98
2018-04-15T08:18:38.208Z,5.98
2018-04-15T08:19:39.034Z,6.17
2018-04-15T08:20:38.276Z,5.98
2018-04-15T08:21:38.315Z,6.07
2018-04-15T08:22:38.347Z,6.37
2018-04-15T08:23:38.383Z,6.26
2018-04-15T08:24:38.421Z,6.36
2018-04-15T08:25:38.457Z,6.17
2018-04-15T08:26:38.491Z,6.17
2018-04-15T08:27:38.524Z,6.07
2018-04-15T08:28:38.560Z,5.98
2018-04-15T08:29:38.596Z,5.88
2018-04-15T08:30:38.632Z,5.88
2018-04-15T08:31:38.667Z,6.46
2018-04-15T08:32:38.706Z,6.17
2018-04-15T08:33:38.736Z,5.88
2018-04-15T08:34:38.772Z,6.26
2018-04-15T08:35:38.817Z,6.07
2018-04-15T08:36:38.848Z,5.98
2018-04-15T08:37:38.879Z,5.98
2018-04-15T08:38:40.545Z,6.07
2018-04-15T08:39:39.542Z,6.07
2018-04-15T08:40:38.986Z,5.88
2018-04-15T08:41:39.542Z,5.88
2018-04-15T08:42:39.063Z,6.36
2018-04-15T08:43:39.089Z,6.17
2018-04-15T08:44:39.127Z,6.17
2018-04-15T08:45:39.165Z,6.36
2018-04-15T08:46:39.200Z,6.17
2018-04-15T08:47:40.546Z,5.98
2018-04-15T08:48:39.323Z,6.07
2018-04-15T08:49:39.322Z,5.98
2018-04-15T08:50:39.343Z,6.17
2018-04-15T08:51:39.377Z,6.17
2018-04-15T08:52:39.414Z,6.07
2018-04-15T08:53:40.049Z,6.07
2018-04-15T08:54:39.483Z,6.26
2018-04-15T08:55:39.518Z,6.17
2018-04-15T08:56:39.553Z,6.07
2018-04-15T08:57:39.589Z,6.37
2018-04-15T08:58:39.622Z,5.69
2018-04-15T08:59:39.660Z,5.98
2018-04-15T09:00:39.744Z,5.69
2018-04-15T09:01:39.730Z,5.88
2018-04-15T09:02:39.766Z,5.88
2018-04-15T09:03:39.800Z,5.98
2018-04-15T09:04:39.837Z,6.07
2018-04-15T09:05:39.874Z,5.78
2018-04-15T09:06:39.906Z,6.07
2018-04-15T09:07:39.942Z,5.49
2018-04-15T09:08:39.981Z,5.69
2018-04-15T09:09:40.066Z,5.78
2018-04-15T09:10:40.050Z,5.78
2018-04-15T09:11:40.105Z,5.78
2018-04-15T09:12:40.119Z,5.79
2018-04-15T09:13:40.157Z,5.78
2018-04-15T09:14:40.208Z,5.88
2018-04-15T09:15:40.225Z,5.88
2018-04-15T09:16:40.261Z,5.78
2018-04-15T09:17:40.295Z,5.78
2018-04-15T09:18:41.060Z,5.78
2018-04-15T09:19:40.367Z,5.79
2018-04-15T09:20:40.401Z,5.49
2018-04-15T09:21:40.440Z,5.59
2018-04-15T09:22:40.473Z,5.88
2018-04-15T09:23:40.510Z,5.69
2018-04-15T09:24:40.559Z,5.98
2018-04-15T09:25:40.578Z,6.07
2018-04-15T09:26:40.615Z,5.88
2018-04-15T09:27:41.564Z,5.98
2018-04-15T09:28:40.684Z,5.88
2018-04-15T09:29:40.721Z,5.98
2018-04-15T09:30:40.764Z,5.98
2018-04-15T09:31:40.792Z,5.98
2018-04-15T09:32:40.855Z,5.98
2018-04-15T09:33:40.871Z,5.98
2018-04-15T09:34:41.570Z,5.88
2018-04-15T09:35:41.002Z,5.78
2018-04-15T09:36:40.969Z,5.78
2018-04-15T09:37:41.004Z,5.78
2018-04-15T09:38:41.040Z,5.78
2018-04-15T09:39:41.083Z,5.98
2018-04-15T09:40:41.109Z,5.88
2018-04-15T09:41:41.147Z,5.98
2018-04-15T09:42:41.185Z,5.88
2018-04-15T09:43:41.217Z,5.98
2018-04-15T09:44:41.253Z,5.69
2018-04-15T09:45:41.288Z,5.69
2018-04-15T09:46:41.323Z,5.79
2018-04-15T09:47:41.357Z,5.69
2018-04-15T09:48:42.072Z,5.98
2018-04-15T09:49:41.431Z,5.59
2018-04-15T09:50:41.464Z,5.69
2018-04-15T09:51:41.505Z,5.88
2018-04-15T09:52:42.398Z,5.69
2018-04-15T09:53:41.568Z,5.98
2018-04-15T09:54:41.608Z,5.69
2018-04-15T09:55:41.639Z,5.69
2018-04-15T09:56:41.677Z,5.69
2018-04-15T09:57:41.715Z,5.98
2018-04-15T09:58:41.748Z,5.88
2018-04-15T09:59:41.783Z,5.79
2018-04-15T10:00:41.820Z,5.69
2018-04-15T10:01:41.857Z,5.79
2018-04-15T10:02:41.892Z,5.79
2018-04-15T10:03:42.581Z,5.88
2018-04-15T10:04:41.963Z,5.88
2018-04-15T10:05:42.591Z,5.88
2018-04-15T10:06:42.035Z,5.88
2018-04-15T10:07:42.069Z,5.98
2018-04-15T10:08:42.103Z,5.78
2018-04-15T10:09:42.140Z,5.98
2018-04-15T10:10:42.172Z,5.98
2018-04-15T10:11:42.209Z,5.98
2018-04-15T10:12:42.244Z,5.78
2018-04-15T10:13:42.281Z,5.69
2018-04-15T10:14:42.318Z,5.88
2018-04-15T10:15:42.350Z,5.88
2018-04-15T10:16:42.397Z,5.79
2018-04-15T10:17:42.423Z,5.59
2018-04-15T10:18:42.456Z,5.59
2018-04-15T10:19:42.524Z,5.69
2018-04-15T10:20:42.530Z,5.69
2018-04-15T10:21:42.564Z,5.69
2018-04-15T10:22:42.599Z,5.69
2018-04-15T10:23:42.637Z,5.69
2018-04-15T10:24:42.670Z,5.79
2018-04-15T10:25:43.091Z,5.69
2018-04-15T10:26:42.744Z,5.78
2018-04-15T10:27:42.776Z,5.79
2018-04-15T10:28:42.813Z,5.88
2018-04-15T10:29:43.591Z,5.98
2018-04-15T10:30:42.883Z,5.79
2018-04-15T10:31:42.926Z,5.88
2018-04-15T10:32:43.922Z,5.79
2018-04-15T10:33:42.994Z,5.69
2018-04-15T10:34:43.027Z,5.49
2018-04-15T10:35:43.060Z,5.69
2018-04-15T10:36:43.096Z,5.11
2018-04-15T10:37:43.131Z,5.11
2018-04-15T10:38:43.219Z,5.11
2018-04-15T10:39:43.596Z,5.11
2018-04-15T10:40:43.238Z,5.11
2018-04-15T10:41:43.276Z,5.59
2018-04-15T10:42:44.105Z,5.59
2018-04-15T10:43:43.346Z,5.21
2018-04-15T10:44:43.382Z,5.11
2018-04-15T10:45:43.417Z,5.11
2018-04-15T10:46:43.452Z,5.30
2018-04-15T10:47:43.489Z,5.69
2018-04-15T10:48:43.524Z,5.59
2018-04-15T10:49:43.559Z,5.30
2018-04-15T10:50:43.599Z,5.59
2018-04-15T10:51:43.632Z,5.78
2018-04-15T10:52:44.108Z,5.49
2018-04-15T10:53:43.702Z,5.69
2018-04-15T10:54:43.787Z,5.78
2018-04-15T10:55:43.771Z,5.69
2018-04-15T10:56:43.807Z,5.69
2018-04-15T10:57:43.841Z,5.49
2018-04-15T10:58:43.877Z,5.69
2018-04-15T10:59:44.610Z,5.78
2018-04-15T11:00:43.949Z,5.69
2018-04-15T11:01:43.984Z,5.59
2018-04-15T11:02:44.019Z,5.59
2018-04-15T11:03:44.055Z,5.69
2018-04-15T11:04:44.097Z,5.69
2018-04-15T11:05:44.124Z,5.69
2018-04-15T11:06:44.160Z,5.21
2018-04-15T11:07:44.202Z,5.69
2018-04-15T11:08:44.239Z,5.11
2018-04-15T11:09:44.268Z,5.40
2018-04-15T11:10:44.363Z,5.88
2018-04-15T11:11:44.364Z,5.40
2018-04-15T11:12:45.114Z,5.59
2018-04-15T11:13:44.408Z,5.49
2018-04-15T11:14:44.444Z,5.49
2018-04-15T11:15:44.482Z,5.30
2018-04-15T11:16:44.514Z,5.30
2018-04-15T11:17:44.552Z,5.49
2018-04-15T11:18:44.590Z,5.30
2018-04-15T11:19:44.622Z,5.30
2018-04-15T11:20:44.657Z,5.49
2018-04-15T11:21:44.695Z,5.40
2018-04-15T11:22:44.727Z,5.49
2018-04-15T11:23:44.764Z,5.30
2018-04-15T11:24:44.799Z,5.49
2018-04-15T11:25:44.835Z,5.49
2018-04-15T11:26:44.870Z,5.21
2018-04-15T11:27:44.906Z,5.69
2018-04-15T11:28:44.957Z,5.59
2018-04-15T11:29:44.977Z,5.69
2018-04-15T11:30:45.013Z,5.30
2018-04-15T11:31:45.047Z,5.30
2018-04-15T11:32:45.083Z,5.30
2018-04-15T11:33:45.117Z,5.49
2018-04-15T11:34:45.158Z,5.49
2018-04-15T11:35:45.190Z,5.69
2018-04-15T11:36:45.274Z,5.21
2018-04-15T11:37:45.261Z,5.59
2018-04-15T11:38:45.297Z,5.49
2018-04-15T11:39:45.328Z,5.59
2018-04-15T11:40:45.365Z,5.98
2018-04-15T11:41:45.398Z,5.98
2018-04-15T11:42:45.438Z,5.78
2018-04-15T11:43:46.130Z,5.88
2018-04-15T11:44:45.509Z,5.69
2018-04-15T11:45:45.543Z,5.88
2018-04-15T11:46:45.583Z,5.98
2018-04-15T11:47:46.129Z,5.78
2018-04-15T11:48:45.649Z,5.49
2018-04-15T11:49:45.687Z,5.49
2018-04-15T11:50:45.719Z,5.59
2018-04-15T11:51:45.755Z,5.69
2018-04-15T11:52:46.632Z,5.69
2018-04-15T11:53:45.826Z,5.40
2018-04-15T11:54:45.859Z,5.40
2018-04-15T11:55:45.899Z,5.21
2018-04-15T11:56:45.934Z,5.59
2018-04-15T11:57:46.953Z,5.49
2018-04-15T11:58:46.003Z,5.69
2018-04-15T11:59:46.638Z,5.49
2018-04-15T12:00:46.074Z,5.40
2018-04-15T12:01:46.119Z,5.49
2018-04-15T12:02:46.147Z,5.40
2018-04-15T12:03:46.638Z,5.40
2018-04-15T12:04:46.214Z,5.40
2018-04-15T12:05:47.139Z,5.30
2018-04-15T12:06:47.137Z,5.30
2018-04-15T12:07:47.639Z,5.40
2018-04-15T12:08:46.360Z,5.40
2018-04-15T12:09:46.393Z,5.30
2018-04-15T12:10:47.141Z,5.40
2018-04-15T12:11:47.139Z,5.69
2018-04-15T12:12:46.501Z,5.49
2018-04-15T12:13:46.538Z,5.40
2018-04-15T12:14:46.591Z,5.40
2018-04-15T12:15:46.606Z,5.49
2018-04-15T12:16:46.641Z,5.49
2018-04-15T12:17:46.678Z,5.49
2018-04-15T12:18:46.710Z,5.40
2018-04-15T12:19:46.747Z,5.21
2018-04-15T12:20:46.782Z,5.40
2018-04-15T12:21:46.818Z,5.21
2018-04-15T12:22:46.855Z,5.11
2018-04-15T12:23:46.889Z,5.21
2018-04-15T12:24:46.924Z,5.11
2018-04-15T12:25:46.961Z,5.11
2018-04-15T12:26:47.034Z,5.11
2018-04-15T12:27:47.031Z,5.21
2018-04-15T12:28:47.650Z,5.21
2018-04-15T12:29:47.103Z,5.11
2018-04-15T12:30:47.650Z,5.30
2018-04-15T12:31:47.173Z,5.11
2018-04-15T12:32:48.651Z,5.01
2018-04-15T12:33:47.247Z,5.21
2018-04-15T12:34:47.280Z,5.21
2018-04-15T12:35:47.357Z,5.21
2018-04-15T12:36:47.352Z,5.11
2018-04-15T12:37:47.390Z,5.01
2018-04-15T12:38:47.424Z,5.11
2018-04-15T12:39:47.457Z,5.30
2018-04-15T12:40:47.493Z,5.21
2018-04-15T12:41:47.530Z,5.21
2018-04-15T12:42:47.564Z,5.30
2018-04-15T12:43:47.598Z,5.21
2018-04-15T12:44:47.633Z,5.21
2018-04-15T12:45:47.668Z,5.40
2018-04-15T12:46:47.709Z,5.40
2018-04-15T12:47:47.738Z,5.49
2018-04-15T12:48:47.775Z,5.49
2018-04-15T12:49:47.814Z,5.59
2018-04-15T12:50:47.846Z,5.40
2018-04-15T12:51:47.885Z,5.49
2018-04-15T12:52:47.916Z,5.49
2018-04-15T12:53:47.949Z,5.49
2018-04-15T12:54:47.988Z,5.88
2018-04-15T12:55:48.025Z,5.88
2018-04-15T12:56:48.058Z,5.59
2018-04-15T12:57:48.092Z,5.78
2018-04-15T12:58:48.135Z,5.59
2018-04-15T12:59:48.169Z,5.88
2018-04-15T13:00:48.200Z,5.59
2018-04-15T13:01:48.232Z,5.78
2018-04-15T13:02:49.164Z,5.88
2018-04-15T13:03:48.307Z,5.59
2018-04-15T13:04:48.340Z,5.59
2018-04-15T13:05:48.376Z,5.59
2018-04-15T13:06:48.413Z,5.69
2018-04-15T13:07:48.446Z,5.88
2018-04-15T13:08:48.486Z,5.78
2018-04-15T13:09:48.518Z,5.69
2018-04-15T13:10:48.553Z,5.88
2018-04-15T13:11:48.589Z,5.98
2018-04-15T13:12:49.172Z,5.59
2018-04-15T13:13:48.660Z,5.59
2018-04-15T13:14:48.695Z,5.78
2018-04-15T13:15:48.731Z,5.98
2018-04-15T13:16:48.772Z,5.88
2018-04-15T13:17:48.801Z,5.98
2018-04-15T13:18:48.836Z,5.98
2018-04-15T13:19:48.889Z,5.98
2018-04-15T13:20:48.914Z,5.78
2018-04-15T13:21:48.940Z,5.98